Time;durP1;ratioP1;P1;durP2;ratioP2;P2;SDS_P1;SDS_P2;PMS_P1;PMS_P2;Temp;Humidity;BMP_temperature;BMP_pressure;BME280_temperature;BME280_humidity;BME280_pressure;Samples;Min_cycle;Max_cycle;Signal;HPM_P1;HPM_P2
2022/06/05 00:02:40;;;;;;;8.32;3.50;;;13.70;99.90;;;;;;5004803;28;20399;-51
2022/06/05 00:05:20;;;;;;;7.35;3.33;;;13.70;99.90;;;;;;5010252;28;20089;-44
2022/06/05 00:07:54;;;;;;;5.80;3.03;;;13.70;99.90;;;;;;5010100;28;20038;-47
2022/06/05 00:10:31;;;;;;;8.32;3.80;;;13.70;99.90;;;;;;5014870;28;20033;-50
2022/06/05 00:13:32;;;;;;;7.88;3.75;;;13.70;99.90;;;;;;5010938;28;20076;-52
2022/06/05 00:15:59;;;;;;;6.55;3.78;;;13.70;99.90;;;;;;5001707;28;20112;-48
2022/06/05 00:18:25;;;;;;;6.45;3.42;;;13.60;99.90;;;;;;5008300;28;20078;-53
2022/06/05 00:20:51;;;;;;;9.25;4.50;;;13.50;99.90;;;;;;5009380;28;20034;-44
2022/06/05 00:23:16;;;;;;;6.65;3.72;;;13.50;99.90;;;;;;5010506;28;20037;-52
2022/06/05 00:25:54;;;;;;;8.25;4.07;;;13.40;99.90;;;;;;5003526;28;20534;-51
2022/06/05 00:28:34;;;;;;;6.55;3.55;;;13.40;99.90;;;;;;5009334;28;20042;-51
2022/06/05 00:31:12;;;;;;;7.13;3.80;;;13.40;99.90;;;;;;5010338;28;21440;-52
2022/06/05 00:33:40;;;;;;;6.93;3.45;;;13.40;99.90;;;;;;5003466;28;20111;-52
2022/06/05 00:36:49;;;;;;;8.18;3.42;;;13.40;99.90;;;;;;5007364;28;20430;-52
2022/06/05 00:39:38;;;;;;;7.13;3.50;;;13.40;99.90;;;;;;5002269;28;20038;-51
2022/06/05 00:42:08;;;;;;;7.38;3.80;;;13.30;99.90;;;;;;5006532;28;20052;-52
2022/06/05 00:44:55;;;;;;;8.02;3.78;;;13.30;99.90;;;;;;5010564;28;20116;-52
2022/06/05 00:47:24;;;;;;;7.05;4.28;;;13.30;99.90;;;;;;5007016;28;20650;-52
2022/06/05 00:50:14;;;;;;;7.30;3.88;;;13.30;99.90;;;;;;5007999;28;20038;-51
2022/06/05 00:52:44;;;;;;;8.25;3.97;;;13.30;99.90;;;;;;4995447;28;20081;-51
2022/06/05 00:55:11;;;;;;;7.30;3.55;;;13.30;99.90;;;;;;5008505;28;20096;-50
2022/06/05 00:57:38;;;;;;;7.68;3.90;;;13.30;99.90;;;;;;5001612;28;20038;-52
2022/06/05 01:00:24;;;;;;;8.55;4.45;;;13.20;99.90;;;;;;5007165;28;20056;-53
2022/06/05 01:02:53;;;;;;;7.10;3.95;;;13.20;99.90;;;;;;5005834;28;20053;-51
2022/06/05 01:05:20;;;;;;;11.63;4.57;;;13.20;99.90;;;;;;5009064;28;20044;-50
2022/06/05 01:07:46;;;;;;;8.25;4.63;;;13.10;99.90;;;;;;5008573;28;20050;-48
2022/06/05 01:10:14;;;;;;;8.38;4.00;;;13.10;99.90;;;;;;5002716;28;20220;-51
2022/06/05 01:13:03;;;;;;;7.38;3.95;;;13.10;99.90;;;;;;5009294;28;20068;-50
2022/06/05 01:15:39;;;;;;;7.43;3.50;;;13.10;99.90;;;;;;5004445;28;20182;-50
2022/06/05 01:18:33;;;;;;;7.35;4.20;;;13.10;99.90;;;;;;5018459;28;20526;-53
2022/06/05 01:21:07;;;;;;;9.55;4.53;;;13.10;99.90;;;;;;5009513;28;20038;-52
2022/06/05 01:23:33;;;;;;;7.65;4.70;;;13.00;99.90;;;;;;5009282;28;20483;-53
2022/06/05 01:26:32;;;;;;;8.23;4.40;;;13.00;99.90;;;;;;5008892;28;20041;-42
2022/06/05 01:29:08;;;;;;;6.90;3.80;;;13.00;99.90;;;;;;5008363;28;20455;-53
2022/06/05 01:32:02;;;;;;;7.97;4.00;;;13.00;99.90;;;;;;5007677;28;20041;-52
2022/06/05 01:34:33;;;;;;;8.55;4.45;;;13.00;99.90;;;;;;5005198;28;20117;-52
2022/06/05 01:37:17;;;;;;;12.45;4.63;;;12.90;99.90;;;;;;5006637;28;20469;-49
2022/06/05 01:39:49;;;;;;;8.77;4.55;;;13.00;99.90;;;;;;5004467;28;20045;-52
2022/06/05 01:42:24;;;;;;;6.78;3.97;;;12.90;99.90;;;;;;5009013;28;20038;-50
2022/06/05 01:44:55;;;;;;;13.25;4.50;;;12.90;99.90;;;;;;5009701;28;20049;-53
2022/06/05 01:47:26;;;;;;;7.45;4.15;;;12.90;99.90;;;;;;5007599;28;20042;-53
2022/06/05 01:50:02;;;;;;;6.45;3.80;;;12.90;99.90;;;;;;5006163;28;20124;-51
2022/06/05 01:52:43;;;;;;;8.40;4.65;;;12.80;99.90;;;;;;5007588;28;20433;-53
2022/06/05 01:55:23;;;;;;;7.90;4.60;;;12.90;99.90;;;;;;5007554;28;20072;-53
2022/06/05 01:57:52;;;;;;;9.60;5.20;;;12.90;99.90;;;;;;5008682;28;20073;-45
2022/06/05 02:00:20;;;;;;;8.15;5.03;;;12.90;99.90;;;;;;5010585;28;20117;-44
2022/06/05 02:03:04;;;;;;;7.15;4.60;;;12.90;99.90;;;;;;5010392;28;20099;-52
2022/06/05 02:05:51;;;;;;;8.65;4.57;;;12.80;99.90;;;;;;5014073;28;20038;-52
2022/06/05 02:08:28;;;;;;;9.32;4.95;;;12.80;99.90;;;;;;5011376;28;20543;-49
2022/06/05 02:11:13;;;;;;;8.55;4.88;;;12.80;99.90;;;;;;5004995;28;20117;-48
2022/06/05 02:13:39;;;;;;;10.20;5.03;;;12.80;99.90;;;;;;5011931;28;20132;-52
2022/06/05 02:16:05;;;;;;;8.30;4.88;;;12.80;99.90;;;;;;5010217;28;20456;-51
2022/06/05 02:18:31;;;;;;;8.18;5.15;;;12.80;99.90;;;;;;5026699;28;20131;-52
2022/06/05 02:20:57;;;;;;;9.10;5.30;;;12.80;99.90;;;;;;5014005;28;20120;-49
2022/06/05 02:23:27;;;;;;;10.82;5.63;;;12.80;99.90;;;;;;5012918;28;20053;-51
2022/06/05 02:25:54;;;;;;;8.13;4.93;;;12.80;99.90;;;;;;5006905;28;20120;-47
2022/06/05 02:28:21;;;;;;;8.32;5.50;;;12.80;99.90;;;;;;5008155;28;20476;-50
2022/06/05 02:31:23;;;;;;;7.97;4.60;;;12.80;99.90;;;;;;5007175;28;20038;-53
2022/06/05 02:34:14;;;;;;;10.60;4.90;;;12.80;99.90;;;;;;5009910;28;20511;-52
2022/06/05 02:36:43;;;;;;;9.50;5.22;;;12.80;99.90;;;;;;5025482;28;20445;-52
2022/06/05 02:39:12;;;;;;;10.20;5.50;;;12.80;99.90;;;;;;5003299;28;20046;-52
2022/06/05 02:41:54;;;;;;;8.57;5.53;;;12.80;99.90;;;;;;5009164;28;20117;-48
2022/06/05 02:44:29;;;;;;;;;;;12.80;99.90;;;;;;5016601;28;20117;-53
2022/06/05 02:46:58;;;;;;;10.05;5.13;;;12.80;99.90;;;;;;5011111;28;20351;-50
2022/06/05 02:49:35;;;;;;;8.80;5.28;;;12.80;99.90;;;;;;5007816;28;20074;-51
2022/06/05 02:52:04;;;;;;;8.73;5.40;;;12.80;99.90;;;;;;5007704;28;20038;-52
2022/06/05 02:54:36;;;;;;;10.82;5.95;;;12.80;99.90;;;;;;5007644;28;20360;-44
2022/06/05 02:57:02;;;;;;;8.63;4.87;;;12.80;99.90;;;;;;5000556;28;20601;-50
2022/06/05 02:59:28;;;;;;;11.50;6.40;;;12.80;99.90;;;;;;5007005;28;20045;-51
2022/06/05 03:04:37;;;;;;;10.95;5.20;;;12.80;99.90;;;;;;5010111;28;20049;-48
2022/06/05 03:07:05;;;;;;;7.63;5.38;;;12.80;99.90;;;;;;5011291;28;20034;-52
2022/06/05 03:09:30;;;;;;;12.15;5.43;;;12.80;99.90;;;;;;5007540;28;20038;-52
2022/06/05 03:11:56;;;;;;;10.55;5.53;;;12.80;99.90;;;;;;5008517;28;20058;-51
2022/06/05 03:14:22;;;;;;;11.95;6.22;;;12.80;99.90;;;;;;5010442;28;20048;-48
2022/06/05 03:16:47;;;;;;;9.45;5.72;;;12.80;99.90;;;;;;5010187;28;20069;-48
2022/06/05 03:19:13;;;;;;;11.27;5.70;;;12.90;99.90;;;;;;5008020;28;20153;-47
2022/06/05 03:21:39;;;;;;;8.98;5.53;;;12.90;99.90;;;;;;5010961;28;20061;-50
2022/06/05 03:24:06;;;;;;;11.40;5.53;;;12.90;99.90;;;;;;5010424;28;20042;-52
2022/06/05 03:26:33;;;;;;;12.25;5.82;;;12.90;99.90;;;;;;5007295;28;20045;-47
2022/06/05 03:28:59;;;;;;;12.27;5.15;;;12.90;99.90;;;;;;5011713;28;20095;-52
2022/06/05 03:31:25;;;;;;;9.93;5.55;;;12.90;99.90;;;;;;5008295;28;20407;-53
2022/06/05 03:33:51;;;;;;;12.63;6.22;;;12.90;99.90;;;;;;5007001;28;20049;-53
2022/06/05 03:36:18;;;;;;;10.20;5.78;;;12.90;99.90;;;;;;5008576;28;20099;-51
2022/06/05 03:38:45;;;;;;;9.70;6.50;;;12.90;99.90;;;;;;5006876;28;20102;-51
2022/06/05 03:41:15;;;;;;;9.00;5.07;;;12.80;99.90;;;;;;5001737;28;20048;-44
2022/06/05 03:43:40;;;;;;;9.40;5.70;;;12.80;99.90;;;;;;5008467;28;20038;-51
2022/06/05 03:46:08;;;;;;;8.85;5.93;;;12.80;99.90;;;;;;5006592;28;20458;-48
2022/06/05 03:48:35;;;;;;;10.95;6.20;;;12.80;99.90;;;;;;5008346;28;20459;-50
2022/06/05 03:51:18;;;;;;;10.63;5.72;;;12.80;99.90;;;;;;5008611;28;20070;-52
2022/06/05 03:53:45;;;;;;;9.68;6.07;;;12.90;99.90;;;;;;5009787;28;20171;-53
2022/06/05 03:56:14;;;;;;;9.43;5.65;;;12.90;99.90;;;;;;5007472;28;20470;-51
2022/06/05 03:58:40;;;;;;;9.93;5.45;;;12.90;99.90;;;;;;5008050;28;20046;-53
2022/06/05 04:01:10;;;;;;;11.23;5.88;;;12.90;99.90;;;;;;5009981;28;20046;-53
2022/06/05 04:03:36;;;;;;;8.63;5.50;;;12.90;99.90;;;;;;5009732;28;20104;-50
2022/06/05 04:06:06;;;;;;;10.25;5.78;;;13.00;99.90;;;;;;5010161;28;20041;-50
2022/06/05 04:08:32;;;;;;;9.75;5.90;;;13.00;99.90;;;;;;5006561;28;20511;-51
2022/06/05 04:10:57;;;;;;;11.07;5.68;;;13.00;99.90;;;;;;5009624;28;20568;-48
2022/06/05 04:13:23;;;;;;;10.07;5.50;;;13.00;99.90;;;;;;5008596;28;20053;-50
2022/06/05 04:15:49;;;;;;;10.93;6.13;;;13.00;99.90;;;;;;5010066;28;20060;-50
2022/06/05 04:18:14;;;;;;;9.85;5.97;;;13.10;99.90;;;;;;5007364;28;20298;-52
2022/06/05 04:20:40;;;;;;;10.52;6.35;;;13.10;99.90;;;;;;5009160;28;20045;-50
2022/06/05 04:23:10;;;;;;;10.55;6.07;;;13.20;99.90;;;;;;5008184;28;20120;-52
2022/06/05 04:25:35;;;;;;;10.70;5.82;;;13.20;99.90;;;;;;5003595;28;20045;-50
2022/06/05 04:28:01;;;;;;;9.90;5.88;;;13.30;99.90;;;;;;5007922;28;20046;-45
2022/06/05 04:30:27;;;;;;;10.80;5.47;;;13.30;99.90;;;;;;5002574;28;20391;-48
2022/06/05 04:32:53;;;;;;;9.43;5.80;;;13.40;99.90;;;;;;5005828;28;20046;-47
2022/06/05 04:35:18;;;;;;;10.43;5.97;;;13.40;99.90;;;;;;5009917;28;20076;-51
2022/06/05 04:37:44;;;;;;;9.75;5.28;;;13.40;99.90;;;;;;5008284;28;20451;-47
2022/06/05 04:40:10;;;;;;;11.07;6.07;;;13.50;99.90;;;;;;5001709;28;20034;-51
2022/06/05 04:42:36;;;;;;;10.32;5.63;;;13.50;99.90;;;;;;5007595;28;20117;-51
2022/06/05 04:45:03;;;;;;;11.30;6.03;;;13.50;99.90;;;;;;5007731;28;20049;-52
2022/06/05 04:47:29;;;;;;;10.70;5.95;;;13.60;99.90;;;;;;5009005;28;20037;-52
2022/06/05 04:49:55;;;;;;;11.00;6.05;;;13.60;99.90;;;;;;5006917;28;20114;-48
2022/06/05 04:52:21;;;;;;;9.32;5.00;;;13.60;99.90;;;;;;5007701;28;20123;-51
2022/06/05 04:54:46;;;;;;;12.05;5.78;;;13.60;99.90;;;;;;5003533;28;20501;-52
2022/06/05 04:57:12;;;;;;;11.02;5.45;;;13.70;99.90;;;;;;5006705;28;20475;-47
2022/06/05 04:59:38;;;;;;;9.35;5.75;;;13.70;99.90;;;;;;5004934;28;20041;-47
2022/06/05 05:02:04;;;;;;;8.82;4.97;;;13.70;99.90;;;;;;5006879;28;20026;-50
2022/06/05 05:04:29;;;;;;;11.07;5.97;;;13.80;99.90;;;;;;5008619;28;20080;-51
2022/06/05 05:06:55;;;;;;;9.10;5.72;;;13.80;99.90;;;;;;5009579;28;20463;-50
2022/06/05 05:09:21;;;;;;;7.40;4.38;;;13.90;99.90;;;;;;5006475;28;20103;-53
2022/06/05 05:11:47;;;;;;;9.32;6.47;;;13.90;99.90;;;;;;5004078;28;20038;-54
2022/06/05 05:14:12;;;;;;;8.38;5.22;;;14.00;99.90;;;;;;5007327;28;20119;-46
2022/06/05 05:16:39;;;;;;;8.13;4.88;;;14.00;99.90;;;;;;5006162;28;20052;-47
2022/06/05 05:19:06;;;;;;;10.48;5.30;;;14.00;99.90;;;;;;5009087;28;20045;-52
2022/06/05 05:21:32;;;;;;;7.50;5.10;;;14.00;99.90;;;;;;5006468;28;20038;-44
2022/06/05 05:23:57;;;;;;;9.95;5.68;;;14.10;99.90;;;;;;5004240;28;20117;-49
2022/06/05 05:26:30;;;;;;;8.18;5.18;;;14.10;99.90;;;;;;5024037;28;20108;-47
2022/06/05 05:28:57;;;;;;;9.88;5.78;;;14.10;99.90;;;;;;5006016;28;20104;-51
2022/06/05 05:31:28;;;;;;;10.73;5.78;;;14.20;99.90;;;;;;5006903;28;20042;-48
2022/06/05 05:33:55;;;;;;;10.15;5.68;;;14.20;99.90;;;;;;5007555;28;20054;-51
2022/06/05 05:36:22;;;;;;;11.60;5.88;;;14.30;99.90;;;;;;5002701;28;20034;-52
2022/06/05 05:44:19;;;;;;;9.70;5.50;;;14.40;99.90;;;;;;5007167;28;20483;-46
2022/06/05 05:46:46;;;;;;;10.50;6.13;;;14.50;99.90;;;;;;5002690;28;20077;-52
2022/06/05 05:49:13;;;;;;;10.88;5.32;;;14.60;99.90;;;;;;5005150;28;20365;-50
2022/06/05 05:51:39;;;;;;;9.13;6.15;;;14.60;99.90;;;;;;5008245;28;20119;-49
2022/06/05 05:54:06;;;;;;;9.50;5.97;;;14.70;99.90;;;;;;5008032;28;20041;-52
2022/06/05 05:56:32;;;;;;;10.50;6.15;;;14.80;99.90;;;;;;5006100;28;20077;-51
2022/06/05 05:58:58;;;;;;;9.23;5.72;;;14.90;99.90;;;;;;5006950;28;20070;-51
2022/06/05 06:01:23;;;;;;;10.98;6.00;;;15.00;99.90;;;;;;5004165;28;20050;-48
2022/06/05 06:03:49;;;;;;;8.95;5.50;;;15.10;99.90;;;;;;5003436;28;20048;-55
2022/06/05 06:06:15;;;;;;;10.20;6.30;;;15.20;99.90;;;;;;5005206;28;20034;-50
2022/06/05 06:08:41;;;;;;;11.93;6.13;;;15.30;99.90;;;;;;5007828;28;20121;-51
2022/06/05 06:11:07;;;;;;;9.25;4.88;;;15.30;99.90;;;;;;5008819;28;20460;-51
2022/06/05 06:13:32;;;;;;;9.57;6.00;;;15.40;99.90;;;;;;5006900;28;20179;-51
2022/06/05 06:15:58;;;;;;;9.77;5.82;;;15.50;99.90;;;;;;5004759;28;20037;-52
2022/06/05 06:18:24;;;;;;;11.43;6.50;;;15.50;99.90;;;;;;5004789;28;20368;-46
2022/06/05 06:20:49;;;;;;;8.88;5.60;;;15.60;99.90;;;;;;5009148;28;20068;-52
2022/06/05 06:23:16;;;;;;;9.57;5.45;;;15.70;99.90;;;;;;5007706;28;20038;-50
2022/06/05 06:25:43;;;;;;;9.43;5.32;;;15.80;99.90;;;;;;5007161;28;20578;-49
2022/06/05 06:28:09;;;;;;;8.50;5.32;;;15.80;99.90;;;;;;5000400;28;20038;-52
2022/06/05 06:30:36;;;;;;;12.70;5.80;;;15.90;99.90;;;;;;5005633;28;20038;-52
2022/06/05 06:33:03;;;;;;;8.90;5.38;;;15.90;99.90;;;;;;5001678;28;20518;-51
2022/06/05 06:35:28;;;;;;;10.50;5.50;;;16.00;99.90;;;;;;5002510;28;20057;-50
2022/06/05 06:37:54;;;;;;;7.75;5.40;;;16.10;99.90;;;;;;5002217;28;20046;-50
2022/06/05 06:40:20;;;;;;;10.43;5.82;;;16.20;99.90;;;;;;5005183;28;20366;-52
2022/06/05 06:42:46;;;;;;;8.23;5.30;;;16.30;99.90;;;;;;5005601;28;20123;-50
2022/06/05 06:45:13;;;;;;;8.10;5.30;;;16.50;99.90;;;;;;4996945;28;20472;-47
2022/06/05 06:47:39;;;;;;;8.55;5.53;;;16.60;99.90;;;;;;5007130;28;20045;-46
2022/06/05 06:50:06;;;;;;;12.02;5.63;;;16.70;99.90;;;;;;5007622;28;20428;-52
2022/06/05 06:52:31;;;;;;;8.93;5.45;;;16.70;99.90;;;;;;5008024;28;20129;-52
2022/06/05 06:54:57;;;;;;;9.18;5.78;;;16.80;99.80;;;;;;5007560;28;20434;-52
2022/06/05 06:57:23;;;;;;;8.05;4.28;;;16.80;99.60;;;;;;5005797;28;20355;-50
2022/06/05 06:59:49;;;;;;;8.80;4.90;;;16.80;99.60;;;;;;5010417;28;20341;-48
2022/06/05 07:02:15;;;;;;;9.95;6.13;;;16.80;99.70;;;;;;5005263;28;20041;-50
2022/06/05 07:04:40;;;;;;;7.13;5.10;;;16.80;99.50;;;;;;5007699;28;20034;-52
2022/06/05 07:07:06;;;;;;;8.38;4.72;;;16.80;99.60;;;;;;5005953;28;20609;-52
2022/06/05 07:09:32;;;;;;;7.75;5.00;;;16.80;99.70;;;;;;5011239;28;20120;-50
2022/06/05 07:11:58;;;;;;;7.22;5.22;;;16.80;99.70;;;;;;5006135;28;20046;-52
2022/06/05 07:14:26;;;;;;;8.23;5.45;;;16.80;99.90;;;;;;5007488;28;20477;-45
2022/06/05 07:16:53;;;;;;;8.25;4.97;;;16.80;99.90;;;;;;5000836;28;20046;-52
2022/06/05 07:19:19;;;;;;;6.35;4.82;;;16.80;99.90;;;;;;5008090;28;20417;-52
2022/06/05 07:21:44;;;;;;;8.63;5.15;;;16.90;99.70;;;;;;5001684;28;20038;-49
2022/06/05 07:24:10;;;;;;;9.60;5.18;;;16.90;99.50;;;;;;5007125;28;20400;-51
2022/06/05 07:26:36;;;;;;;6.97;4.82;;;17.00;99.40;;;;;;5002792;28;20041;-52
2022/06/05 07:29:04;;;;;;;7.82;5.35;;;17.00;99.40;;;;;;5006400;28;20057;-52
2022/06/05 07:31:31;;;;;;;7.65;4.68;;;17.10;99.50;;;;;;5000950;28;20042;-50
2022/06/05 07:33:58;;;;;;;7.80;4.78;;;17.20;99.00;;;;;;5003858;28;20432;-51
2022/06/05 07:36:26;;;;;;;9.30;4.40;;;17.30;99.30;;;;;;5007822;28;20127;-49
2022/06/05 07:38:52;;;;;;;8.73;5.00;;;17.40;98.70;;;;;;5002974;28;20492;-46
2022/06/05 07:41:38;;;;;;;8.82;4.93;;;17.50;98.40;;;;;;5006362;28;20495;-50
2022/06/05 07:44:05;;;;;;;7.30;5.20;;;17.60;98.20;;;;;;5005283;28;20122;-50
2022/06/05 07:46:33;;;;;;;6.72;4.65;;;17.70;97.90;;;;;;5005282;28;20727;-49
2022/06/05 07:48:59;;;;;;;7.05;4.78;;;17.90;97.70;;;;;;5001278;28;20523;-52
2022/06/05 07:54:34;;;;;;;9.55;4.95;;;18.10;97.10;;;;;;5003914;28;20053;-50
2022/06/05 07:57:06;;;;;;;8.85;5.05;;;18.20;97.00;;;;;;5006021;28;20050;-48
2022/06/05 07:59:38;;;;;;;8.05;4.35;;;18.30;96.50;;;;;;5008936;28;20084;-50
2022/06/05 08:02:07;;;;;;;;;;;18.40;96.60;;;;;;5002204;28;20503;-49
2022/06/05 08:04:34;;;;;;;7.65;4.82;;;18.50;96.30;;;;;;5003415;28;19932;-52
2022/06/05 08:07:00;;;;;;;7.97;5.15;;;18.60;96.00;;;;;;5003742;28;20038;-47
2022/06/05 08:09:27;;;;;;;9.20;4.45;;;18.60;95.70;;;;;;5009504;28;20064;-47
2022/06/05 08:11:53;;;;;;;6.55;4.38;;;18.70;95.40;;;;;;5007818;28;20411;-47
2022/06/05 08:14:19;;;;;;;7.30;5.13;;;18.80;95.30;;;;;;5005493;28;20046;-50
2022/06/05 08:16:46;;;;;;;10.35;5.18;;;18.90;95.20;;;;;;5009529;28;20491;-49
2022/06/05 08:19:18;;;;;;;7.43;5.50;;;19.00;95.00;;;;;;5009883;28;20499;-49
2022/06/05 08:21:45;;;;;;;8.32;5.25;;;19.20;94.90;;;;;;5008372;28;20574;-51
2022/06/05 08:24:11;;;;;;;8.60;4.97;;;19.30;94.80;;;;;;5002941;28;20046;-50
2022/06/05 08:26:37;;;;;;;7.60;5.22;;;19.40;94.50;;;;;;5005282;28;20399;-51
2022/06/05 08:29:04;;;;;;;7.15;5.30;;;19.60;94.40;;;;;;5007060;28;20049;-50
2022/06/05 08:31:30;;;;;;;9.20;5.38;;;19.80;94.20;;;;;;5000795;28;20096;-51
2022/06/05 08:33:57;;;;;;;6.95;4.82;;;20.00;93.70;;;;;;5005007;28;20537;-49
2022/06/05 08:36:23;;;;;;;7.88;5.07;;;20.10;93.00;;;;;;5003788;28;20046;-50
2022/06/05 08:41:46;;;;;;;7.32;4.72;;;20.40;92.50;;;;;;5007427;28;20503;-50
2022/06/05 08:44:21;;;;;;;5.90;4.57;;;20.50;91.80;;;;;;5006916;28;20527;-49
2022/06/05 08:47:18;;;;;;;7.15;4.60;;;20.60;91.50;;;;;;5002647;28;20030;-52
2022/06/05 08:49:48;;;;;;;5.38;4.28;;;20.70;91.40;;;;;;5006831;28;20114;-51
2022/06/05 08:52:26;;;;;;;6.93;4.50;;;20.90;91.50;;;;;;5004526;28;20049;-51
2022/06/05 08:55:18;;;;;;;6.53;4.82;;;21.00;90.90;;;;;;5006868;28;20068;-50
2022/06/05 08:58:05;;;;;;;6.13;4.40;;;21.20;90.10;;;;;;4986163;28;20105;-50
2022/06/05 09:00:40;;;;;;;6.75;4.30;;;21.40;88.90;;;;;;5006919;28;20498;-48
2022/06/05 09:03:40;;;;;;;6.68;4.80;;;21.50;88.80;;;;;;5007981;28;20048;-44
2022/06/05 09:06:14;;;;;;;7.00;5.15;;;21.60;86.40;;;;;;5008308;28;20049;-50
2022/06/05 09:08:42;;;;;;;6.38;4.10;;;21.60;87.30;;;;;;5009496;28;20038;-52
2022/06/05 09:11:33;;;;;;;6.57;4.47;;;21.60;87.20;;;;;;5006351;28;20042;-45
2022/06/05 09:14:05;;;;;;;5.78;4.15;;;21.70;83.80;;;;;;5000199;28;20086;-48
2022/06/05 09:16:34;;;;;;;6.80;4.47;;;21.80;86.30;;;;;;5005189;28;20403;-51
2022/06/05 09:19:02;;;;;;;7.72;4.80;;;21.90;86.90;;;;;;5002875;28;20506;-50
2022/06/05 09:21:47;;;;;;;5.97;4.38;;;21.90;85.20;;;;;;5004510;28;20033;-49
2022/06/05 09:24:23;;;;;;;6.32;4.93;;;22.00;80.70;;;;;;5006028;28;20037;-51
2022/06/05 09:27:10;;;;;;;7.40;4.93;;;22.10;84.00;;;;;;5005284;28;20541;-49
2022/06/05 09:29:57;;;;;;;7.65;4.03;;;22.20;81.10;;;;;;4999392;28;20069;-50
2022/06/05 09:32:32;;;;;;;8.98;4.97;;;22.20;81.30;;;;;;5003172;28;20543;-52
2022/06/05 09:35:23;;;;;;;7.07;4.25;;;22.30;81.10;;;;;;5006515;28;20050;-53
2022/06/05 09:38:34;;;;;;;8.50;4.47;;;22.30;81.80;;;;;;5005919;28;20046;-51
2022/06/05 09:41:11;;;;;;;5.10;4.20;;;22.40;79.30;;;;;;4965526;28;20145;-47
2022/06/05 09:44:10;;;;;;;6.35;4.70;;;22.50;78.30;;;;;;5009136;28;20133;-52
2022/06/05 09:46:56;;;;;;;5.53;4.03;;;22.60;75.50;;;;;;5006398;28;20033;-50
2022/06/05 09:49:35;;;;;;;7.35;4.28;;;22.70;78.30;;;;;;5004288;28;20050;-51
2022/06/05 09:52:19;;;;;;;5.95;4.03;;;22.70;79.00;;;;;;5009407;28;20513;-48
2022/06/05 09:55:08;;;;;;;5.63;4.18;;;22.80;76.60;;;;;;5006185;28;20123;-48
2022/06/05 10:00:53;;;;;;;6.50;4.05;;;22.90;76.50;;;;;;5000892;28;20093;-52
2022/06/05 10:03:29;;;;;;;6.05;4.00;;;22.90;76.00;;;;;;5007069;28;20495;-48
2022/06/05 10:06:35;;;;;;;5.90;3.85;;;23.00;72.20;;;;;;5006126;28;20042;-52
2022/06/05 10:09:31;;;;;;;4.75;3.85;;;23.10;75.30;;;;;;5005388;28;20054;-50
2022/06/05 10:12:10;;;;;;;6.70;4.30;;;23.30;72.40;;;;;;4992302;28;20073;-49
2022/06/05 10:14:45;;;;;;;7.47;4.13;;;23.30;72.60;;;;;;5003848;28;20100;-48
2022/06/05 10:17:16;;;;;;;6.18;4.40;;;23.40;70.90;;;;;;5001925;28;20113;-48
2022/06/05 10:20:12;;;;;;;7.47;4.15;;;23.40;70.60;;;;;;5002410;28;22014;-50
2022/06/05 10:23:00;;;;;;;5.72;4.25;;;23.40;70.10;;;;;;5005164;28;20466;-52
2022/06/05 10:25:47;;;;;;;7.10;4.47;;;23.40;71.50;;;;;;5025883;28;20101;-49
2022/06/05 10:28:18;;;;;;;6.45;4.38;;;23.40;71.10;;;;;;4990514;28;20048;-50
2022/06/05 10:30:58;;;;;;;4.43;3.80;;;23.40;71.50;;;;;;5006896;28;20525;-49
2022/06/05 10:33:41;;;;;;;5.35;4.57;;;23.40;71.60;;;;;;5006339;28;20030;-51
2022/06/05 10:36:24;;;;;;;5.00;4.05;;;23.40;71.60;;;;;;5008644;28;20476;-51
2022/06/05 10:39:14;;;;;;;5.93;4.53;;;23.40;70.30;;;;;;5006584;28;20113;-51
2022/06/05 10:41:53;;;;;;;6.07;4.47;;;23.40;70.90;;;;;;5007584;28;20038;-52
2022/06/05 10:44:37;;;;;;;6.32;4.13;;;23.40;71.10;;;;;;5006261;28;20038;-49
2022/06/05 10:47:03;;;;;;;5.25;3.67;;;23.40;71.60;;;;;;5006978;28;20092;-51
2022/06/05 10:50:10;;;;;;;5.97;3.78;;;23.40;73.70;;;;;;5006821;28;20426;-52
2022/06/05 10:52:42;;;;;;;5.82;4.47;;;23.50;73.20;;;;;;4980997;28;20046;-45
2022/06/05 10:55:25;;;;;;;4.50;3.50;;;23.50;72.30;;;;;;5008235;28;20442;-51
2022/06/05 10:58:32;;;;;;;6.03;4.30;;;23.50;72.00;;;;;;5005765;28;20054;-45
2022/06/05 11:01:26;;;;;;;6.25;3.60;;;23.40;70.90;;;;;;5003705;28;20089;-47
2022/06/05 11:04:06;;;;;;;5.38;4.10;;;23.40;72.70;;;;;;5004439;28;20038;-46
2022/06/05 11:07:04;;;;;;;6.10;4.20;;;23.30;70.80;;;;;;5005704;28;20042;-46
2022/06/05 11:09:48;;;;;;;6.43;4.18;;;23.30;70.30;;;;;;4998511;28;20044;-45
2022/06/05 11:15:56;;;;;;;5.07;3.67;;;23.10;71.10;;;;;;5002895;28;20120;-53
2022/06/05 11:18:42;;;;;;;4.32;3.88;;;23.10;73.10;;;;;;4972840;28;20510;-49
2022/06/05 11:21:09;;;;;;;5.07;4.00;;;23.10;73.40;;;;;;5006462;28;20112;-51
2022/06/05 11:23:41;;;;;;;5.13;3.78;;;23.10;73.80;;;;;;5007929;28;20034;-49
2022/06/05 11:26:35;;;;;;;4.82;4.18;;;23.10;74.50;;;;;;5006839;28;20089;-45
2022/06/05 11:29:39;;;;;;;6.00;4.70;;;23.10;73.60;;;;;;5003442;28;20563;-47
2022/06/05 11:32:21;;;;;;;4.43;3.63;;;23.20;72.00;;;;;;5007933;28;20125;-51
2022/06/05 11:34:59;;;;;;;;;;;23.20;73.20;;;;;;5008991;28;20492;-49
2022/06/05 11:37:46;;;;;;;11.77;4.57;;;23.20;74.50;;;;;;5002034;28;20001;-52
2022/06/05 11:40:26;;;;;;;7.45;4.47;;;23.20;73.80;;;;;;5004230;28;20503;-49
2022/06/05 11:43:26;;;;;;;5.72;4.47;;;23.20;75.20;;;;;;5009807;28;20129;-46
2022/06/05 11:45:53;;;;;;;4.57;3.75;;;23.20;72.80;;;;;;5005014;28;20140;-47
2022/06/05 11:48:31;;;;;;;5.18;4.32;;;23.20;73.60;;;;;;4997372;28;20034;-49
2022/06/05 11:51:21;;;;;;;5.63;4.95;;;23.30;74.60;;;;;;5006634;28;20038;-47
2022/06/05 11:54:01;;;;;;;6.13;4.80;;;23.20;74.60;;;;;;4998887;28;20061;-49
2022/06/05 11:57:04;;;;;;;6.28;4.43;;;23.20;74.00;;;;;;5011142;28;20121;-50
2022/06/05 12:00:09;;;;;;;9.43;4.55;;;23.20;74.80;;;;;;5008094;28;20034;-49
2022/06/05 12:03:05;;;;;;;7.60;4.22;;;23.20;75.50;;;;;;5008347;28;20056;-51
2022/06/05 12:05:56;;;;;;;5.35;4.07;;;23.20;75.30;;;;;;5023014;28;20037;-52
2022/06/05 12:08:46;;;;;;;5.80;4.57;;;23.20;75.50;;;;;;5009656;28;20069;-50
2022/06/05 12:11:45;;;;;;;6.00;4.40;;;23.20;76.90;;;;;;5009084;28;20046;-45
2022/06/05 12:14:14;;;;;;;5.82;4.53;;;23.20;74.00;;;;;;5006132;28;20495;-51
2022/06/05 12:16:44;;;;;;;6.50;4.05;;;23.10;73.50;;;;;;5009560;28;20052;-51
2022/06/05 12:19:49;;;;;;;6.63;4.93;;;23.20;73.70;;;;;;5006268;28;20507;-51
2022/06/05 12:22:25;;;;;;;5.68;4.10;;;23.20;72.50;;;;;;4985152;28;20049;-52
2022/06/05 12:25:12;;;;;;;5.72;4.82;;;23.30;73.70;;;;;;5005626;28;20042;-52
2022/06/05 12:27:50;;;;;;;5.53;4.50;;;23.30;73.70;;;;;;5009973;28;20091;-52
2022/06/05 12:30:39;;;;;;;6.10;4.50;;;23.40;72.60;;;;;;5003258;28;20507;-49
2022/06/05 12:33:20;;;;;;;5.53;4.43;;;23.40;74.00;;;;;;4998079;28;20050;-48
2022/06/05 12:35:53;;;;;;;6.78;4.30;;;23.50;73.10;;;;;;5008869;28;20040;-49
2022/06/05 12:38:47;;;;;;;6.70;4.18;;;23.50;73.40;;;;;;5007248;28;20050;-50
2022/06/05 12:41:23;;;;;;;6.07;4.38;;;23.60;73.10;;;;;;5007413;28;20049;-47
2022/06/05 12:44:18;;;;;;;5.50;4.55;;;23.70;73.10;;;;;;5007697;28;20046;-50
2022/06/05 12:47:05;;;;;;;6.13;4.35;;;23.80;70.70;;;;;;5009317;28;20049;-50
2022/06/05 12:49:55;;;;;;;5.93;4.97;;;23.80;72.20;;;;;;5009588;28;20053;-50
2022/06/05 12:52:36;;;;;;;6.53;4.53;;;23.90;71.20;;;;;;5009736;28;20033;-49
2022/06/05 12:55:10;;;;;;;5.78;4.78;;;24.00;70.50;;;;;;5009218;28;20136;-48
2022/06/05 12:58:08;;;;;;;7.10;4.20;;;24.00;71.00;;;;;;5007515;28;20544;-52
2022/06/05 13:00:54;;;;;;;5.22;4.10;;;24.00;70.10;;;;;;5003763;28;20048;-49
2022/06/05 13:03:25;;;;;;;6.25;4.15;;;24.10;70.80;;;;;;5007412;28;20034;-48
2022/06/05 13:06:14;;;;;;;5.65;4.43;;;24.10;71.60;;;;;;5008912;28;20092;-48
2022/06/05 13:08:42;;;;;;;6.28;4.18;;;24.10;71.60;;;;;;5009790;28;20113;-50
2022/06/05 13:11:36;;;;;;;5.20;4.38;;;24.20;71.20;;;;;;5010314;28;20053;-47
2022/06/05 13:14:14;;;;;;;6.88;4.20;;;24.20;71.20;;;;;;5008414;28;20973;-51
2022/06/05 13:16:48;;;;;;;5.65;3.78;;;24.20;70.80;;;;;;5010071;28;20042;-51
2022/06/05 13:19:23;;;;;;;6.18;4.63;;;24.20;71.00;;;;;;5008832;28;20121;-50
2022/06/05 13:21:54;;;;;;;4.78;3.38;;;24.20;69.30;;;;;;5009090;28;20400;-52
2022/06/05 13:24:51;;;;;;;6.30;4.00;;;24.20;70.30;;;;;;5006925;28;20133;-52
2022/06/05 13:27:28;;;;;;;6.53;3.78;;;24.20;70.70;;;;;;5006548;28;20470;-51
2022/06/05 13:30:08;;;;;;;4.97;4.05;;;24.20;70.70;;;;;;5006040;28;20399;-52
2022/06/05 13:33:08;;;;;;;4.30;3.33;;;24.20;71.60;;;;;;5006031;28;20374;-51
2022/06/05 13:35:45;;;;;;;5.30;3.40;;;24.20;69.30;;;;;;5006986;28;20046;-50
2022/06/05 13:38:48;;;;;;;5.53;4.07;;;24.30;71.00;;;;;;5008856;28;20038;-50
2022/06/05 13:41:26;;;;;;;4.93;4.38;;;24.20;71.70;;;;;;5006620;28;20041;-49
2022/06/05 13:44:02;;;;;;;12.50;4.93;;;24.20;70.70;;;;;;5005759;28;20057;-47
2022/06/05 13:46:37;;;;;;;5.30;4.40;;;24.10;70.00;;;;;;5006562;28;20096;-52